createdAt,value
2022-08-11T00:00:12.440Z,506.00
2022-08-11T00:00:42.471Z,505.00
2022-08-11T00:01:12.496Z,505.00
2022-08-11T00:01:42.521Z,504.00
2022-08-11T00:02:15.309Z,505.00
2022-08-11T00:02:42.692Z,504.00
2022-08-11T00:03:12.785Z,505.00
2022-08-11T00:03:43.718Z,505.00
2022-08-11T00:04:12.842Z,505.00
2022-08-11T00:04:42.867Z,506.00
2022-08-11T00:05:12.889Z,506.00
2022-08-11T00:05:42.913Z,507.00
2022-08-11T00:06:12.932Z,506.00
2022-08-11T00:06:42.956Z,506.00
2022-08-11T00:07:13.018Z,505.00
2022-08-11T00:07:43.038Z,505.00
2022-08-11T00:08:13.058Z,505.00
2022-08-11T00:08:43.082Z,505.00
2022-08-11T00:09:13.107Z,505.00
2022-08-11T00:09:43.147Z,505.00
2022-08-11T00:10:13.169Z,505.00
2022-08-11T00:10:43.193Z,505.00
2022-08-11T00:11:13.241Z,507.00
2022-08-11T00:11:43.335Z,505.00
2022-08-11T00:12:13.386Z,503.00
2022-08-11T00:12:43.410Z,503.00
2022-08-11T00:13:16.894Z,502.00
2022-08-11T00:13:43.480Z,502.00
2022-08-11T00:14:13.501Z,502.00
2022-08-11T00:14:43.599Z,501.00
2022-08-11T00:15:13.634Z,502.00
2022-08-11T00:15:43.656Z,503.00
2022-08-11T00:16:13.686Z,503.00
2022-08-11T00:16:43.720Z,502.00
2022-08-11T00:17:13.805Z,502.00
2022-08-11T00:17:43.834Z,500.00
2022-08-11T00:18:13.857Z,500.00
2022-08-11T00:18:43.880Z,502.00
2022-08-11T00:19:13.904Z,502.00
2022-08-11T00:20:11.664Z,501.00
2022-08-11T00:20:16.743Z,502.00
2022-08-11T00:20:44.028Z,502.00
2022-08-11T00:21:14.040Z,502.00
2022-08-11T00:22:04.752Z,502.00
2022-08-11T00:22:14.158Z,502.00
2022-08-11T00:22:44.181Z,503.00
2022-08-11T00:23:14.206Z,503.00
2022-08-11T00:23:44.266Z,502.00
2022-08-11T00:24:14.296Z,501.00
2022-08-11T00:24:54.856Z,501.00
2022-08-11T00:25:14.369Z,502.00
2022-08-11T00:25:44.393Z,500.00
2022-08-11T00:26:14.415Z,501.00
2022-08-11T00:26:44.447Z,502.00
2022-08-11T00:27:14.513Z,503.00
2022-08-11T00:27:44.538Z,503.00
2022-08-11T00:28:14.552Z,503.00
2022-08-11T00:28:44.582Z,504.00
2022-08-11T00:29:14.608Z,505.00
2022-08-11T00:29:51.818Z,504.00
2022-08-11T00:30:14.672Z,502.00
2022-08-11T00:30:44.699Z,503.00
2022-08-11T00:31:14.727Z,503.00
2022-08-11T00:31:44.746Z,503.00
2022-08-11T00:32:14.792Z,502.00
2022-08-11T00:32:44.809Z,502.00
2022-08-11T00:33:14.910Z,502.00
2022-08-11T00:33:45.557Z,501.00
2022-08-11T00:34:15.068Z,500.00
2022-08-11T00:34:45.176Z,500.00
2022-08-11T00:35:54.321Z,498.00
2022-08-11T00:35:55.547Z,498.00
2022-08-11T00:36:15.305Z,498.00
2022-08-11T00:36:45.420Z,499.00
2022-08-11T00:37:15.552Z,498.00
2022-08-11T00:37:45.539Z,500.00
2022-08-11T00:38:15.534Z,500.00
2022-08-11T00:38:45.648Z,499.00
2022-08-11T00:39:15.818Z,501.00
2022-08-11T00:39:45.866Z,502.00
2022-08-11T00:40:15.837Z,503.00
2022-08-11T00:40:45.955Z,502.00
2022-08-11T00:41:16.059Z,501.00
2022-08-11T00:41:46.172Z,501.00
2022-08-11T00:42:16.351Z,501.00
2022-08-11T00:42:46.352Z,501.00
2022-08-11T00:43:20.534Z,500.00
2022-08-11T00:43:46.381Z,501.00
2022-08-11T00:44:16.400Z,500.00
2022-08-11T00:44:46.431Z,500.00
2022-08-11T00:45:16.455Z,499.00
2022-08-11T00:45:46.473Z,500.00
2022-08-11T00:46:16.489Z,499.00
2022-08-11T00:46:46.511Z,499.00
2022-08-11T00:47:16.531Z,499.00
2022-08-11T00:47:46.557Z,498.00
2022-08-11T00:48:16.705Z,498.00
2022-08-11T00:48:46.608Z,499.00
2022-08-11T00:49:16.631Z,499.00
2022-08-11T00:49:46.655Z,499.00
2022-08-11T00:50:16.673Z,499.00
2022-08-11T00:50:46.694Z,498.00
2022-08-11T00:51:16.718Z,496.00
2022-08-11T00:52:04.822Z,497.00
2022-08-11T00:52:16.809Z,498.00
2022-08-11T00:52:46.835Z,499.00
2022-08-11T00:53:16.853Z,500.00
2022-08-11T00:53:46.919Z,501.00
2022-08-11T00:54:16.937Z,501.00
2022-08-11T00:54:46.963Z,500.00
2022-08-11T00:55:16.981Z,501.00
2022-08-11T00:55:47.269Z,501.00
2022-08-11T00:56:17.042Z,500.00
2022-08-11T00:56:47.086Z,499.00
2022-08-11T00:57:36.942Z,498.00
2022-08-11T00:57:47.157Z,498.00
2022-08-11T00:58:21.774Z,499.00
2022-08-11T00:58:50.892Z,499.00
2022-08-11T00:59:35.371Z,499.00
2022-08-11T00:59:47.387Z,498.00
2022-08-11T01:00:17.406Z,496.00
2022-08-11T01:00:47.473Z,497.00
2022-08-11T01:01:17.581Z,496.00
2022-08-11T01:01:47.528Z,495.00
2022-08-11T01:02:17.549Z,495.00
2022-08-11T01:02:47.576Z,496.00
2022-08-11T01:03:17.595Z,496.00
2022-08-11T01:03:47.619Z,495.00
2022-08-11T01:04:17.641Z,494.00
2022-08-11T01:04:50.202Z,496.00
2022-08-11T01:05:17.717Z,495.00
2022-08-11T01:05:47.731Z,496.00
2022-08-11T01:06:17.751Z,496.00
2022-08-11T01:06:47.794Z,497.00
2022-08-11T01:08:01.272Z,497.00
2022-08-11T01:08:01.417Z,496.00
2022-08-11T01:08:17.898Z,497.00
2022-08-11T01:08:47.920Z,497.00
2022-08-11T01:09:22.364Z,497.00
2022-08-11T01:09:48.026Z,497.00
2022-08-11T01:10:18.046Z,498.00
2022-08-11T01:10:48.072Z,498.00
2022-08-11T01:11:18.086Z,498.00
2022-08-11T01:11:55.847Z,498.00
2022-08-11T01:12:18.197Z,498.00
2022-08-11T01:12:48.218Z,497.00
2022-08-11T01:13:18.238Z,497.00
2022-08-11T01:13:48.271Z,497.00
2022-08-11T01:14:18.296Z,498.00
2022-08-11T01:14:48.334Z,497.00
2022-08-11T01:15:18.355Z,498.00
2022-08-11T01:15:55.836Z,499.00
2022-08-11T01:16:18.415Z,498.00
2022-08-11T01:16:48.433Z,498.00
2022-08-11T01:17:18.462Z,497.00
2022-08-11T01:17:48.483Z,496.00
2022-08-11T01:18:18.500Z,496.00
2022-08-11T01:18:48.523Z,495.00
2022-08-11T01:19:18.544Z,497.00
2022-08-11T01:20:39.722Z,497.00
2022-08-11T01:20:45.102Z,496.00
2022-08-11T01:20:49.606Z,497.00
2022-08-11T01:21:18.676Z,498.00
2022-08-11T01:21:48.695Z,498.00
2022-08-11T01:22:18.714Z,498.00
2022-08-11T01:22:48.731Z,498.00
2022-08-11T01:23:18.749Z,497.00
2022-08-11T01:23:48.779Z,495.00
2022-08-11T01:24:18.806Z,495.00
2022-08-11T01:24:48.828Z,496.00
2022-08-11T01:25:18.848Z,494.00
2022-08-11T01:25:57.259Z,494.00
2022-08-11T01:26:18.909Z,494.00
2022-08-11T01:26:48.934Z,494.00
2022-08-11T01:27:19.996Z,493.00
2022-08-11T01:27:49.008Z,494.00
2022-08-11T01:28:19.030Z,494.00
2022-08-11T01:28:49.052Z,494.00
2022-08-11T01:29:19.076Z,496.00
2022-08-11T01:29:49.421Z,496.00
2022-08-11T01:30:19.207Z,495.00
2022-08-11T01:30:49.233Z,497.00
2022-08-11T01:31:19.251Z,498.00
2022-08-11T01:31:49.278Z,499.00
2022-08-11T01:32:19.300Z,498.00
2022-08-11T01:32:49.298Z,499.00
2022-08-11T01:33:19.415Z,499.00
2022-08-11T01:33:49.400Z,499.00
2022-08-11T01:34:19.506Z,497.00
2022-08-11T01:34:49.612Z,497.00
2022-08-11T01:35:19.721Z,497.00
2022-08-11T01:35:49.828Z,495.00
2022-08-11T01:36:19.936Z,495.00
2022-08-11T01:36:56.977Z,494.00
2022-08-11T01:37:20.051Z,496.00
2022-08-11T01:37:50.158Z,495.00
2022-08-11T01:38:20.269Z,494.00
2022-08-11T01:38:50.384Z,495.00
2022-08-11T01:39:20.522Z,494.00
2022-08-11T01:39:50.638Z,494.00
2022-08-11T01:40:20.626Z,494.00
2022-08-11T01:40:50.736Z,494.00
2022-08-11T01:41:20.845Z,494.00
2022-08-11T01:41:50.838Z,494.00
2022-08-11T01:42:20.956Z,494.00
2022-08-11T01:42:50.960Z,495.00
2022-08-11T01:43:21.074Z,493.00
2022-08-11T01:43:51.098Z,493.00
2022-08-11T01:44:21.119Z,492.00
2022-08-11T01:44:51.142Z,493.00
2022-08-11T01:45:21.159Z,495.00
2022-08-11T01:45:51.203Z,494.00
2022-08-11T01:46:21.218Z,494.00
2022-08-11T01:46:51.239Z,493.00
2022-08-11T01:47:21.277Z,494.00
2022-08-11T01:47:53.475Z,494.00
2022-08-11T01:48:21.443Z,493.00
2022-08-11T01:48:51.474Z,492.00
2022-08-11T01:50:05.771Z,492.00
2022-08-11T01:50:07.557Z,492.00
2022-08-11T01:50:21.585Z,490.00
2022-08-11T01:50:51.608Z,490.00
2022-08-11T01:51:21.625Z,491.00
2022-08-11T01:51:51.655Z,492.00
2022-08-11T01:52:34.796Z,492.00
2022-08-11T01:52:51.715Z,493.00
2022-08-11T01:53:21.752Z,493.00
2022-08-11T01:53:51.763Z,492.00
2022-08-11T01:54:21.787Z,490.00
2022-08-11T01:54:51.803Z,492.00
2022-08-11T01:55:21.871Z,493.00
2022-08-11T01:55:51.886Z,495.00
2022-08-11T01:56:21.906Z,497.00
2022-08-11T01:56:51.926Z,494.00
2022-08-11T01:57:21.961Z,492.00
2022-08-11T01:57:51.975Z,492.00
2022-08-11T01:58:21.992Z,495.00
2022-08-11T01:58:52.032Z,495.00
2022-08-11T01:59:22.051Z,495.00
2022-08-11T01:59:52.071Z,496.00
2022-08-11T02:00:22.102Z,498.00
2022-08-11T02:00:52.199Z,496.00
2022-08-11T02:01:22.209Z,496.00
2022-08-11T02:01:52.248Z,496.00
2022-08-11T02:02:22.266Z,496.00
2022-08-11T02:02:52.283Z,496.00
2022-08-11T02:03:22.333Z,495.00
2022-08-11T02:03:52.367Z,496.00
2022-08-11T02:04:22.391Z,496.00
2022-08-11T02:04:52.407Z,495.00
2022-08-11T02:05:22.427Z,494.00
2022-08-11T02:05:52.445Z,494.00
2022-08-11T02:06:22.462Z,493.00
2022-08-11T02:06:52.484Z,492.00
2022-08-11T02:07:22.504Z,493.00
2022-08-11T02:07:52.522Z,493.00
2022-08-11T02:08:33.285Z,494.00
2022-08-11T02:08:52.686Z,495.00
2022-08-11T02:09:22.708Z,496.00
2022-08-11T02:09:52.731Z,495.00
2022-08-11T02:10:22.757Z,494.00
2022-08-11T02:10:52.788Z,492.00
2022-08-11T02:11:22.792Z,492.00
2022-08-11T02:11:52.887Z,493.00
2022-08-11T02:12:22.888Z,495.00
2022-08-11T02:12:53.007Z,497.00
2022-08-11T02:13:23.487Z,497.00
2022-08-11T02:13:53.073Z,497.00
2022-08-11T02:14:23.169Z,497.00
2022-08-11T02:15:04.807Z,499.00
2022-08-11T02:15:23.232Z,500.00
2022-08-11T02:15:53.265Z,500.00
2022-08-11T02:16:23.287Z,499.00
2022-08-11T02:16:53.314Z,501.00
2022-08-11T02:17:23.329Z,501.00
2022-08-11T02:17:54.902Z,500.00
2022-08-11T02:18:23.766Z,501.00
2022-08-11T02:18:53.480Z,501.00
2022-08-11T02:19:23.501Z,501.00
2022-08-11T02:19:53.526Z,501.00
2022-08-11T02:20:23.544Z,500.00
2022-08-11T02:20:53.564Z,499.00
2022-08-11T02:21:23.627Z,498.00
2022-08-11T02:21:53.648Z,496.00
2022-08-11T02:22:23.675Z,497.00
2022-08-11T02:22:53.698Z,495.00
2022-08-11T02:24:05.099Z,494.00
2022-08-11T02:24:05.099Z,525.00
2022-08-11T02:24:32.811Z,515.00
2022-08-11T02:25:02.850Z,511.00
2022-08-11T02:25:32.918Z,512.00
2022-08-11T02:26:03.011Z,513.00
2022-08-11T04:09:54.365Z,495.00
2022-08-11T04:10:24.361Z,490.00
2022-08-11T04:10:55.967Z,490.00
2022-08-11T04:11:24.545Z,488.00
2022-08-11T04:11:54.624Z,488.00
2022-08-11T04:12:35.513Z,490.00
2022-08-11T04:12:54.869Z,492.00
2022-08-11T04:13:24.906Z,491.00
2022-08-11T04:13:54.971Z,489.00
2022-08-11T04:14:25.043Z,491.00
2022-08-11T04:14:55.128Z,491.00
2022-08-11T04:15:25.204Z,491.00
2022-08-11T04:15:55.282Z,492.00
2022-08-11T04:16:25.368Z,491.00
2022-08-11T04:16:55.460Z,490.00
2022-08-11T04:17:25.536Z,490.00
2022-08-11T04:17:55.603Z,491.00
2022-08-11T04:18:25.672Z,492.00
2022-08-11T04:18:55.753Z,492.00
2022-08-11T04:19:25.828Z,489.00
2022-08-11T04:19:55.933Z,488.00
2022-08-11T04:20:26.044Z,487.00
2022-08-11T04:20:56.151Z,489.00
2022-08-11T04:21:26.262Z,488.00
2022-08-11T04:21:56.382Z,487.00
2022-08-11T04:22:26.365Z,488.00
2022-08-11T04:22:56.474Z,489.00
2022-08-11T04:24:34.812Z,488.00
2022-08-11T04:24:35.223Z,491.00
2022-08-11T04:24:35.529Z,487.00
2022-08-11T04:24:56.614Z,494.00
2022-08-11T04:25:26.717Z,497.00
2022-08-11T04:25:58.508Z,497.00
2022-08-11T04:26:26.925Z,498.00
2022-08-11T04:26:57.044Z,498.00
2022-08-11T04:27:36.784Z,498.00
2022-08-11T04:27:57.154Z,497.00
2022-08-11T04:28:28.957Z,496.00
2022-08-11T04:28:57.202Z,495.00
2022-08-11T04:29:35.880Z,496.00
2022-08-11T04:30:02.219Z,495.00
2022-08-11T04:30:27.237Z,495.00
2022-08-11T04:30:57.350Z,495.00
2022-08-11T04:31:44.439Z,494.00
2022-08-11T04:31:57.466Z,494.00
2022-08-11T04:32:27.500Z,496.00
2022-08-11T04:32:57.549Z,498.00
2022-08-11T04:33:27.591Z,497.00
2022-08-11T04:33:57.600Z,498.00
2022-08-11T04:34:27.709Z,498.00
2022-08-11T04:34:57.830Z,498.00
2022-08-11T04:35:27.945Z,497.00
2022-08-11T04:35:58.057Z,499.00
2022-08-11T04:36:28.165Z,497.00
2022-08-11T04:36:58.274Z,495.00
2022-08-11T04:37:28.389Z,495.00
2022-08-11T04:37:58.456Z,495.00
2022-08-11T04:38:28.569Z,498.00
2022-08-11T04:38:58.684Z,499.00
2022-08-11T04:39:28.813Z,500.00
2022-08-11T04:39:58.901Z,502.00
2022-08-11T04:40:29.007Z,504.00
2022-08-11T04:40:58.998Z,503.00
2022-08-11T04:41:29.110Z,505.00
2022-08-11T04:41:59.167Z,505.00
2022-08-11T04:42:31.671Z,510.00
2022-08-11T04:42:59.207Z,519.00
2022-08-11T04:43:29.317Z,522.00
2022-08-11T04:44:02.497Z,525.00
2022-08-11T04:44:29.318Z,526.00
2022-08-11T04:44:59.432Z,524.00
2022-08-11T04:45:29.433Z,525.00
2022-08-11T04:45:59.540Z,525.00
2022-08-11T04:46:29.654Z,524.00
2022-08-11T04:46:59.779Z,523.00
2022-08-11T04:47:29.779Z,523.00
2022-08-11T04:48:04.473Z,523.00
2022-08-11T04:48:29.796Z,523.00
2022-08-11T04:48:59.911Z,525.00
2022-08-11T04:49:33.625Z,523.00
2022-08-11T04:49:59.945Z,523.00
2022-08-11T04:50:30.048Z,521.00
2022-08-11T04:51:00.803Z,520.00
2022-08-11T04:51:30.194Z,522.00
2022-08-11T04:52:00.183Z,522.00
2022-08-11T04:52:37.430Z,523.00
2022-08-11T04:53:00.303Z,522.00
2022-08-11T04:53:30.417Z,522.00
2022-08-11T04:54:00.535Z,521.00
2022-08-11T04:54:30.528Z,523.00
2022-08-11T04:55:00.642Z,522.00
2022-08-11T04:55:30.753Z,523.00
2022-08-11T04:56:00.868Z,523.00
2022-08-11T04:56:30.973Z,524.00
2022-08-11T04:57:00.959Z,525.00
2022-08-11T04:57:31.077Z,525.00
2022-08-11T04:58:01.191Z,525.00
2022-08-11T04:58:31.686Z,524.00
2022-08-11T04:59:01.401Z,525.00
2022-08-11T04:59:31.511Z,524.00
2022-08-11T05:00:01.642Z,523.00
2022-08-11T05:00:31.617Z,522.00
2022-08-11T05:01:01.749Z,522.00
2022-08-11T05:01:36.564Z,520.00
2022-08-11T05:02:01.910Z,520.00
2022-08-11T05:02:31.814Z,519.00
2022-08-11T05:03:01.927Z,519.00
2022-08-11T05:03:32.040Z,521.00
2022-08-11T05:04:02.160Z,520.00
2022-08-11T05:04:32.271Z,519.00
2022-08-11T05:05:02.382Z,518.00
2022-08-11T05:05:32.496Z,519.00
2022-08-11T05:06:02.615Z,520.00
2022-08-11T05:06:32.598Z,519.00
2022-08-11T05:07:02.724Z,518.00
2022-08-11T05:07:32.707Z,516.00
2022-08-11T05:08:02.817Z,517.00
2022-08-11T05:08:32.805Z,516.00
2022-08-11T05:09:02.915Z,517.00
2022-08-11T05:09:33.010Z,517.00
2022-08-11T05:10:03.088Z,516.00
2022-08-11T05:10:33.168Z,515.00
2022-08-11T05:11:03.277Z,515.00
2022-08-11T05:11:33.380Z,514.00
2022-08-11T05:12:03.470Z,513.00
2022-08-11T05:12:33.653Z,513.00
2022-08-11T05:13:03.556Z,513.00
2022-08-11T05:13:33.626Z,512.00
2022-08-11T05:14:03.709Z,509.00
2022-08-11T05:14:33.782Z,508.00
2022-08-11T05:15:03.866Z,507.00
2022-08-11T05:15:42.689Z,506.00
2022-08-11T05:16:04.039Z,502.00
2022-08-11T05:16:34.157Z,502.00
2022-08-11T05:17:04.229Z,501.00
2022-08-11T05:17:34.306Z,501.00
2022-08-11T05:18:04.390Z,501.00
2022-08-11T05:18:34.488Z,501.00
2022-08-11T05:19:04.540Z,500.00
2022-08-11T05:19:34.629Z,500.00
2022-08-11T05:20:04.742Z,499.00
2022-08-11T05:20:34.854Z,497.00
2022-08-11T05:21:05.418Z,496.00
2022-08-11T05:21:45.365Z,498.00
2022-08-11T05:22:05.116Z,498.00
2022-08-11T05:22:35.106Z,495.00
2022-08-11T05:23:05.219Z,494.00
2022-08-11T05:23:35.328Z,496.00
2022-08-11T05:24:05.436Z,496.00
2022-08-11T05:24:35.541Z,498.00
2022-08-11T05:25:05.652Z,512.00
2022-08-11T05:26:43.465Z,504.00
2022-08-11T05:26:43.863Z,499.00
2022-08-11T05:26:47.853Z,498.00
2022-08-11T05:27:09.984Z,494.00
2022-08-11T05:27:35.706Z,492.00
2022-08-11T05:28:05.821Z,492.00
2022-08-11T05:28:35.930Z,492.00
2022-08-11T05:29:19.296Z,492.00
2022-08-11T05:29:36.053Z,490.00
2022-08-11T05:30:06.157Z,488.00
2022-08-11T05:30:36.268Z,488.00
2022-08-11T05:31:06.386Z,487.00
2022-08-11T05:31:36.498Z,488.00
2022-08-11T05:32:06.610Z,489.00
2022-08-11T05:32:36.834Z,488.00
2022-08-11T05:33:06.746Z,488.00
2022-08-11T05:33:36.867Z,487.00
2022-08-11T05:34:06.977Z,485.00
2022-08-11T05:34:36.970Z,484.00
2022-08-11T05:35:07.086Z,483.00
2022-08-11T05:36:01.691Z,486.00
2022-08-11T05:36:07.085Z,492.00
2022-08-11T05:36:37.202Z,496.00
2022-08-11T05:37:25.533Z,502.00
2022-08-11T05:37:37.201Z,500.00
2022-08-11T05:38:07.359Z,492.00
2022-08-11T05:38:37.341Z,503.00
2022-08-11T05:39:07.501Z,505.00
2022-08-11T05:39:37.631Z,474.00
2022-08-11T05:40:07.617Z,502.00
2022-08-11T05:40:37.550Z,498.00
2022-08-11T05:41:07.658Z,495.00
2022-08-11T05:41:37.785Z,501.00
2022-08-11T05:42:07.769Z,498.00
2022-08-11T05:42:37.781Z,498.00
2022-08-11T05:43:07.900Z,495.00
2022-08-11T05:43:38.014Z,494.00
2022-08-11T05:44:20.282Z,495.00
2022-08-11T05:44:38.057Z,495.00
2022-08-11T05:45:15.547Z,494.00
2022-08-11T05:46:01.254Z,494.00
2022-08-11T05:46:11.327Z,492.00
2022-08-11T05:46:38.106Z,491.00
2022-08-11T05:47:08.113Z,494.00
2022-08-11T05:47:38.196Z,491.00
2022-08-11T05:48:08.316Z,489.00
2022-08-11T05:48:38.313Z,489.00
2022-08-11T05:49:08.433Z,490.00
2022-08-11T05:49:38.416Z,489.00
2022-08-11T05:50:08.419Z,489.00
2022-08-11T05:50:38.427Z,487.00
2022-08-11T05:51:10.444Z,486.00
2022-08-11T05:51:38.455Z,484.00
2022-08-11T05:52:12.955Z,486.00
2022-08-11T05:52:41.814Z,486.00
2022-08-11T05:53:09.213Z,486.00
2022-08-11T05:53:45.752Z,485.00
2022-08-11T05:54:28.526Z,484.00
2022-08-11T05:54:38.594Z,484.00
2022-08-11T05:55:08.708Z,486.00
2022-08-11T05:55:53.937Z,487.00
2022-08-11T05:56:08.712Z,488.00
2022-08-11T05:56:38.834Z,490.00
2022-08-11T05:57:08.964Z,490.00
2022-08-11T05:57:50.775Z,490.00
2022-08-11T05:58:08.957Z,489.00
2022-08-11T05:58:42.408Z,486.00
2022-08-11T05:59:09.175Z,494.00
2022-08-11T05:59:39.265Z,495.00
2022-08-11T06:00:09.378Z,496.00
2022-08-11T06:00:39.487Z,492.00
2022-08-11T06:01:09.697Z,494.00
2022-08-11T06:01:39.710Z,495.00
2022-08-11T06:02:09.732Z,495.00
2022-08-11T06:02:39.720Z,492.00
2022-08-11T06:03:09.837Z,479.00
2022-08-11T06:03:39.948Z,491.00
2022-08-11T06:04:09.951Z,493.00
2022-08-11T06:04:39.946Z,491.00
2022-08-11T06:05:10.058Z,493.00
2022-08-11T06:05:43.943Z,496.00
2022-08-11T06:06:10.139Z,499.00
2022-08-11T06:06:45.191Z,501.00
2022-08-11T06:07:10.285Z,501.00
2022-08-11T06:07:48.508Z,500.00
2022-08-11T06:08:10.287Z,500.00
2022-08-11T06:08:40.396Z,498.00
2022-08-11T06:09:10.514Z,500.00
2022-08-11T06:09:40.599Z,501.00
2022-08-11T06:10:10.672Z,500.00
2022-08-11T06:10:40.734Z,501.00
2022-08-11T06:11:10.811Z,505.00
2022-08-11T06:11:43.179Z,510.00
2022-08-11T06:12:11.009Z,505.00
2022-08-11T06:12:41.075Z,505.00
2022-08-11T06:13:11.156Z,506.00
2022-08-11T06:13:41.226Z,517.00
2022-08-11T06:14:11.304Z,534.00
2022-08-11T06:14:41.376Z,530.00
2022-08-11T06:15:11.453Z,525.00
2022-08-11T06:15:41.533Z,526.00
2022-08-11T06:16:11.612Z,529.00
2022-08-11T06:16:41.686Z,530.00
2022-08-11T06:17:11.779Z,532.00
2022-08-11T06:17:41.761Z,533.00
2022-08-11T06:18:11.831Z,533.00
2022-08-11T06:18:41.904Z,533.00
2022-08-11T06:19:11.973Z,532.00
2022-08-11T06:19:42.087Z,531.00
2022-08-11T06:20:12.204Z,533.00
2022-08-11T06:20:42.213Z,532.00
2022-08-11T06:21:12.213Z,531.00
2022-08-11T06:21:42.202Z,532.00
2022-08-11T06:22:12.318Z,532.00
2022-08-11T06:22:42.428Z,533.00
2022-08-11T06:23:12.545Z,535.00
2022-08-11T06:23:42.662Z,537.00
2022-08-11T06:24:12.796Z,534.00
2022-08-11T06:24:42.781Z,531.00
2022-08-11T06:25:12.893Z,531.00
2022-08-11T06:25:42.896Z,561.00
2022-08-11T06:26:12.900Z,511.00
2022-08-11T06:27:08.757Z,523.00
2022-08-11T06:27:13.867Z,528.00
2022-08-11T06:27:42.981Z,523.00
2022-08-11T06:28:15.967Z,517.00
2022-08-11T06:28:43.102Z,516.00
2022-08-11T06:29:13.219Z,516.00
2022-08-11T06:29:48.136Z,518.00
2022-08-11T06:30:13.342Z,523.00
2022-08-11T06:30:43.501Z,527.00
2022-08-11T06:31:13.510Z,530.00
2022-08-11T06:31:43.623Z,534.00
2022-08-11T06:32:13.746Z,538.00
2022-08-11T06:32:43.755Z,538.00
2022-08-11T06:33:13.786Z,539.00
2022-08-11T06:33:43.810Z,540.00
2022-08-11T06:34:27.293Z,541.00
2022-08-11T06:34:43.832Z,536.00
2022-08-11T06:35:13.951Z,535.00
2022-08-11T06:35:43.948Z,532.00
2022-08-11T06:36:14.059Z,528.00
2022-08-11T06:36:44.173Z,515.00
2022-08-11T06:37:14.299Z,509.00
2022-08-11T06:37:44.289Z,507.00
2022-08-11T06:38:14.401Z,504.00
2022-08-11T06:38:44.522Z,501.00
2022-08-11T06:39:14.598Z,498.00
2022-08-11T06:39:44.642Z,499.00
2022-08-11T06:40:14.631Z,501.00
2022-08-11T06:40:44.623Z,503.00
2022-08-11T06:41:14.626Z,503.00
2022-08-11T06:41:44.738Z,503.00
2022-08-11T06:42:14.890Z,505.00
2022-08-11T06:42:44.882Z,507.00
2022-08-11T06:43:14.870Z,509.00
2022-08-11T06:43:44.869Z,510.00
2022-08-11T06:44:14.880Z,509.00
2022-08-11T06:44:44.875Z,508.00
2022-08-11T06:45:14.986Z,505.00
2022-08-11T06:45:45.105Z,508.00
2022-08-11T06:46:25.220Z,510.00
2022-08-11T06:46:45.230Z,510.00
2022-08-11T06:47:15.355Z,511.00
2022-08-11T06:47:45.340Z,512.00
2022-08-11T06:48:15.454Z,513.00
2022-08-11T06:48:45.446Z,514.00
2022-08-11T06:49:15.557Z,515.00
2022-08-11T06:49:45.557Z,516.00
2022-08-11T06:50:15.673Z,519.00
2022-08-11T06:50:45.683Z,520.00
2022-08-11T06:51:15.674Z,524.00
2022-08-11T06:51:45.787Z,524.00
2022-08-11T06:52:35.893Z,525.00
2022-08-11T06:52:45.882Z,524.00
2022-08-11T06:53:15.813Z,523.00
2022-08-11T06:53:56.317Z,524.00
2022-08-11T06:54:15.932Z,525.00
2022-08-11T06:54:46.043Z,526.00
2022-08-11T06:55:57.116Z,527.00
2022-08-11T06:55:57.590Z,526.00
2022-08-11T06:56:16.183Z,530.00
2022-08-11T06:56:46.302Z,529.00
2022-08-11T06:57:31.650Z,531.00
2022-08-11T06:57:46.305Z,530.00
2022-08-11T06:58:16.294Z,530.00
2022-08-11T06:58:46.403Z,529.00
2022-08-11T06:59:16.523Z,530.00
2022-08-11T06:59:46.636Z,528.00
2022-08-11T07:00:16.737Z,528.00
2022-08-11T07:00:46.857Z,529.00
2022-08-11T07:01:16.935Z,527.00
2022-08-11T07:01:49.210Z,527.00
2022-08-11T07:02:16.978Z,527.00
2022-08-11T07:02:47.090Z,526.00
2022-08-11T07:03:17.197Z,526.00
2022-08-11T07:03:47.305Z,526.00
2022-08-11T07:04:17.416Z,525.00
2022-08-11T07:04:47.530Z,526.00
2022-08-11T07:05:17.638Z,522.00
2022-08-11T07:05:47.701Z,521.00
2022-08-11T07:06:17.814Z,519.00
2022-08-11T07:06:50.376Z,519.00
2022-08-11T07:07:17.861Z,521.00
2022-08-11T07:07:47.970Z,525.00
2022-08-11T07:08:34.506Z,524.00
2022-08-11T07:08:47.969Z,524.00
2022-08-11T07:09:18.089Z,528.00
2022-08-11T07:09:48.164Z,533.00
2022-08-11T07:10:18.244Z,535.00
2022-08-11T07:10:48.316Z,534.00
2022-08-11T07:11:18.400Z,534.00
2022-08-11T07:11:48.477Z,533.00
2022-08-11T07:12:18.556Z,529.00
2022-08-11T07:12:48.663Z,523.00
2022-08-11T07:13:44.295Z,516.00
2022-08-11T07:13:48.836Z,512.00
2022-08-11T07:14:18.905Z,507.00
2022-08-11T07:14:48.978Z,506.00
2022-08-11T07:15:19.058Z,503.00
2022-08-11T07:16:10.781Z,503.00
2022-08-11T07:16:19.283Z,506.00
2022-08-11T07:16:49.353Z,506.00
2022-08-11T07:17:19.428Z,507.00
2022-08-11T07:17:49.938Z,506.00
2022-08-11T07:18:19.605Z,504.00
2022-08-11T07:18:49.689Z,505.00
2022-08-11T07:19:19.762Z,503.00
2022-08-11T07:19:49.874Z,503.00
2022-08-11T07:20:19.879Z,503.00
2022-08-11T07:20:50.008Z,504.00
2022-08-11T07:22:01.247Z,504.00
2022-08-11T07:22:02.527Z,504.00
2022-08-11T07:22:20.959Z,506.00
2022-08-11T07:22:50.102Z,506.00
2022-08-11T07:23:20.100Z,506.00
2022-08-11T07:23:50.211Z,505.00
2022-08-11T07:24:20.323Z,505.00
2022-08-11T07:25:01.438Z,504.00
2022-08-11T07:25:20.361Z,502.00
2022-08-11T07:25:50.354Z,502.00
2022-08-11T07:26:20.467Z,501.00
2022-08-11T07:26:50.579Z,501.00
2022-08-11T07:27:20.697Z,501.00
2022-08-11T07:27:50.708Z,503.00
2022-08-11T07:28:20.701Z,506.00
2022-08-11T07:28:50.814Z,506.00
2022-08-11T07:29:20.927Z,512.00
2022-08-11T07:29:51.047Z,513.00
2022-08-11T07:30:21.065Z,515.00
2022-08-11T07:30:51.906Z,512.00
2022-08-11T07:31:21.057Z,517.00
2022-08-11T07:31:51.170Z,518.00
2022-08-11T07:32:21.170Z,519.00
2022-08-11T07:32:51.170Z,518.00
2022-08-11T07:34:06.342Z,519.00
2022-08-11T07:34:07.268Z,516.00
2022-08-11T07:34:21.301Z,513.00
2022-08-11T07:34:51.440Z,511.00
2022-08-11T07:35:21.487Z,512.00
2022-08-11T07:35:51.471Z,511.00
2022-08-11T07:36:21.629Z,510.00
2022-08-11T07:36:51.629Z,511.00
2022-08-11T07:37:21.615Z,510.00
2022-08-11T07:38:01.399Z,508.00
2022-08-11T07:38:25.130Z,503.00
2022-08-11T07:38:51.842Z,503.00
2022-08-11T07:39:21.996Z,502.00
2022-08-11T07:39:52.072Z,499.00
2022-08-11T07:40:22.162Z,496.00
2022-08-11T07:40:52.135Z,495.00
2022-08-11T07:41:22.247Z,494.00
2022-08-11T07:41:52.357Z,494.00
2022-08-11T07:42:22.385Z,494.00
2022-08-11T07:42:52.372Z,492.00
2022-08-11T07:43:22.488Z,492.00
2022-08-11T07:43:52.487Z,493.00
2022-08-11T07:44:22.592Z,493.00
2022-08-11T07:44:52.710Z,493.00
2022-08-11T07:45:22.819Z,496.00
2022-08-11T07:45:52.933Z,498.00
2022-08-11T07:46:23.049Z,498.00
2022-08-11T07:46:53.162Z,496.00
2022-08-11T07:47:23.290Z,494.00
2022-08-11T07:47:53.402Z,492.00
2022-08-11T07:48:23.516Z,494.00
2022-08-11T07:48:53.626Z,495.00
2022-08-11T07:49:23.742Z,494.00
2022-08-11T07:49:53.856Z,497.00
2022-08-11T07:50:23.969Z,501.00
2022-08-11T07:50:56.145Z,503.00
2022-08-11T07:51:24.124Z,504.00
2022-08-11T07:51:54.236Z,505.00
2022-08-11T07:52:24.344Z,505.00
2022-08-11T07:52:54.453Z,502.00
2022-08-11T07:53:24.568Z,494.00
2022-08-11T07:53:58.613Z,492.00
2022-08-11T07:54:24.703Z,489.00
2022-08-11T07:54:54.827Z,490.00
2022-08-11T07:55:48.922Z,491.00
2022-08-11T07:55:54.855Z,489.00
2022-08-11T07:56:48.729Z,488.00
2022-08-11T07:57:09.191Z,486.00
2022-08-11T07:57:53.241Z,486.00
2022-08-11T07:58:16.812Z,487.00
2022-08-11T07:58:25.019Z,485.00